sensor_id;sensor_type;location;lat;lon;timestamp;P1;durP1;ratioP1;P2;durP2;ratioP2
19291;SDS011;9779;51.756;7.450;2023-04-25T00:01:20;12.17;;;4.63;;
19291;SDS011;9779;51.756;7.450;2023-04-25T00:03:46;7.13;;;4.27;;
19291;SDS011;9779;51.756;7.450;2023-04-25T00:06:12;8.97;;;4.60;;
19291;SDS011;9779;51.756;7.450;2023-04-25T00:08:38;9.80;;;4.30;;
19291;SDS011;9779;51.756;7.450;2023-04-25T00:11:04;6.87;;;4.40;;
19291;SDS011;9779;51.756;7.450;2023-04-25T00:13:30;9.40;;;4.40;;
19291;SDS011;9779;51.756;7.450;2023-04-25T00:15:56;15.27;;;4.93;;
19291;SDS011;9779;51.756;7.450;2023-04-25T00:18:22;8.67;;;4.70;;
19291;SDS011;9779;51.756;7.450;2023-04-25T00:20:48;9.50;;;4.93;;
19291;SDS011;9779;51.756;7.450;2023-04-25T00:23:14;11.60;;;5.03;;
19291;SDS011;9779;51.756;7.450;2023-04-25T00:25:43;8.10;;;4.20;;
19291;SDS011;9779;51.756;7.450;2023-04-25T00:28:10;7.80;;;4.53;;
19291;SDS011;9779;51.756;7.450;2023-04-25T00:30:36;7.67;;;4.83;;
19291;SDS011;9779;51.756;7.450;2023-04-25T00:33:01;7.97;;;4.70;;
19291;SDS011;9779;51.756;7.450;2023-04-25T00:35:27;6.77;;;4.37;;
19291;SDS011;9779;51.756;7.450;2023-04-25T00:37:53;9.23;;;5.10;;
19291;SDS011;9779;51.756;7.450;2023-04-25T00:40:20;9.27;;;4.80;;
19291;SDS011;9779;51.756;7.450;2023-04-25T00:42:45;18.37;;;5.17;;
19291;SDS011;9779;51.756;7.450;2023-04-25T00:45:12;10.70;;;4.97;;
19291;SDS011;9779;51.756;7.450;2023-04-25T00:47:40;8.90;;;4.87;;
19291;SDS011;9779;51.756;7.450;2023-04-25T00:50:06;7.20;;;4.43;;
19291;SDS011;9779;51.756;7.450;2023-04-25T00:52:33;7.40;;;3.80;;
19291;SDS011;9779;51.756;7.450;2023-04-25T00:54:58;6.97;;;4.43;;
19291;SDS011;9779;51.756;7.450;2023-04-25T00:57:24;11.93;;;4.67;;
19291;SDS011;9779;51.756;7.450;2023-04-25T00:59:51;8.17;;;4.43;;
19291;SDS011;9779;51.756;7.450;2023-04-25T01:02:18;5.20;;;4.57;;
19291;SDS011;9779;51.756;7.450;2023-04-25T01:04:45;7.07;;;4.00;;
19291;SDS011;9779;51.756;7.450;2023-04-25T01:07:12;8.50;;;4.40;;
19291;SDS011;9779;51.756;7.450;2023-04-25T01:09:38;8.93;;;4.50;;
19291;SDS011;9779;51.756;7.450;2023-04-25T01:12:03;7.07;;;3.87;;
19291;SDS011;9779;51.756;7.450;2023-04-25T01:14:29;7.93;;;4.37;;
19291;SDS011;9779;51.756;7.450;2023-04-25T01:16:55;7.97;;;3.80;;
19291;SDS011;9779;51.756;7.450;2023-04-25T01:19:20;8.77;;;4.37;;
19291;SDS011;9779;51.756;7.450;2023-04-25T01:21:46;8.50;;;4.80;;
19291;SDS011;9779;51.756;7.450;2023-04-25T01:24:13;7.23;;;3.60;;
19291;SDS011;9779;51.756;7.450;2023-04-25T01:26:39;9.70;;;4.07;;
19291;SDS011;9779;51.756;7.450;2023-04-25T01:29:09;3.87;;;3.57;;
19291;SDS011;9779;51.756;7.450;2023-04-25T01:31:35;7.37;;;3.90;;
19291;SDS011;9779;51.756;7.450;2023-04-25T01:34:01;5.67;;;4.47;;
19291;SDS011;9779;51.756;7.450;2023-04-25T01:36:27;10.33;;;4.17;;
19291;SDS011;9779;51.756;7.450;2023-04-25T01:38:53;4.73;;;3.20;;
19291;SDS011;9779;51.756;7.450;2023-04-25T01:41:20;12.83;;;4.20;;
19291;SDS011;9779;51.756;7.450;2023-04-25T01:43:48;7.60;;;3.80;;
19291;SDS011;9779;51.756;7.450;2023-04-25T01:46:13;4.03;;;3.73;;
19291;SDS011;9779;51.756;7.450;2023-04-25T01:48:39;10.27;;;3.60;;
19291;SDS011;9779;51.756;7.450;2023-04-25T01:51:04;7.83;;;3.53;;
19291;SDS011;9779;51.756;7.450;2023-04-25T01:53:30;5.03;;;3.73;;
19291;SDS011;9779;51.756;7.450;2023-04-25T01:55:56;8.43;;;4.60;;
19291;SDS011;9779;51.756;7.450;2023-04-25T01:58:21;5.50;;;3.47;;
19291;SDS011;9779;51.756;7.450;2023-04-25T02:00:47;6.27;;;3.83;;
19291;SDS011;9779;51.756;7.450;2023-04-25T02:03:12;9.60;;;3.67;;
19291;SDS011;9779;51.756;7.450;2023-04-25T02:05:38;6.27;;;3.33;;
19291;SDS011;9779;51.756;7.450;2023-04-25T02:08:05;9.27;;;3.80;;
19291;SDS011;9779;51.756;7.450;2023-04-25T02:10:31;8.00;;;4.20;;
19291;SDS011;9779;51.756;7.450;2023-04-25T02:12:58;5.93;;;3.50;;
19291;SDS011;9779;51.756;7.450;2023-04-25T02:15:23;9.00;;;4.07;;
19291;SDS011;9779;51.756;7.450;2023-04-25T02:17:49;3.30;;;2.97;;
19291;SDS011;9779;51.756;7.450;2023-04-25T02:20:17;5.03;;;3.33;;
19291;SDS011;9779;51.756;7.450;2023-04-25T02:22:46;8.50;;;4.00;;
19291;SDS011;9779;51.756;7.450;2023-04-25T02:25:12;4.40;;;3.40;;
19291;SDS011;9779;51.756;7.450;2023-04-25T02:27:37;6.47;;;4.83;;
19291;SDS011;9779;51.756;7.450;2023-04-25T02:30:04;7.50;;;3.67;;
19291;SDS011;9779;51.756;7.450;2023-04-25T02:32:31;6.80;;;3.53;;
19291;SDS011;9779;51.756;7.450;2023-04-25T02:34:57;6.60;;;3.27;;
19291;SDS011;9779;51.756;7.450;2023-04-25T02:37:28;6.93;;;3.63;;
19291;SDS011;9779;51.756;7.450;2023-04-25T02:39:54;6.20;;;3.60;;
19291;SDS011;9779;51.756;7.450;2023-04-25T02:42:20;6.20;;;3.47;;
19291;SDS011;9779;51.756;7.450;2023-04-25T02:44:45;5.07;;;3.27;;
19291;SDS011;9779;51.756;7.450;2023-04-25T02:47:11;11.77;;;3.77;;
19291;SDS011;9779;51.756;7.450;2023-04-25T02:49:36;8.20;;;3.20;;
19291;SDS011;9779;51.756;7.450;2023-04-25T02:52:02;6.20;;;3.60;;
19291;SDS011;9779;51.756;7.450;2023-04-25T02:54:27;7.13;;;3.23;;
19291;SDS011;9779;51.756;7.450;2023-04-25T02:56:53;9.97;;;3.30;;
19291;SDS011;9779;51.756;7.450;2023-04-25T02:59:18;13.27;;;4.60;;
19291;SDS011;9779;51.756;7.450;2023-04-25T03:01:44;7.10;;;3.07;;
19291;SDS011;9779;51.756;7.450;2023-04-25T03:04:10;9.67;;;3.00;;
19291;SDS011;9779;51.756;7.450;2023-04-25T03:06:36;15.10;;;3.67;;
19291;SDS011;9779;51.756;7.450;2023-04-25T03:09:01;15.97;;;3.30;;
19291;SDS011;9779;51.756;7.450;2023-04-25T03:11:27;6.90;;;3.43;;
19291;SDS011;9779;51.756;7.450;2023-04-25T03:13:52;6.43;;;2.87;;
19291;SDS011;9779;51.756;7.450;2023-04-25T03:16:18;8.53;;;3.77;;
19291;SDS011;9779;51.756;7.450;2023-04-25T03:18:43;17.13;;;3.70;;
19291;SDS011;9779;51.756;7.450;2023-04-25T03:21:09;8.90;;;3.40;;
19291;SDS011;9779;51.756;7.450;2023-04-25T03:23:34;6.73;;;3.03;;
19291;SDS011;9779;51.756;7.450;2023-04-25T03:26:00;15.77;;;3.63;;
19291;SDS011;9779;51.756;7.450;2023-04-25T03:28:25;13.70;;;3.63;;
19291;SDS011;9779;51.756;7.450;2023-04-25T03:30:51;6.20;;;3.37;;
19291;SDS011;9779;51.756;7.450;2023-04-25T03:33:16;18.67;;;4.40;;
19291;SDS011;9779;51.756;7.450;2023-04-25T03:35:42;16.10;;;3.63;;
19291;SDS011;9779;51.756;7.450;2023-04-25T03:38:08;11.23;;;3.33;;
19291;SDS011;9779;51.756;7.450;2023-04-25T03:40:33;9.63;;;3.17;;
19291;SDS011;9779;51.756;7.450;2023-04-25T03:42:59;18.10;;;3.70;;
19291;SDS011;9779;51.756;7.450;2023-04-25T03:45:24;19.00;;;4.13;;
19291;SDS011;9779;51.756;7.450;2023-04-25T03:47:50;13.93;;;3.33;;
19291;SDS011;9779;51.756;7.450;2023-04-25T03:50:15;23.63;;;4.40;;
19291;SDS011;9779;51.756;7.450;2023-04-25T03:52:42;16.90;;;3.77;;
19291;SDS011;9779;51.756;7.450;2023-04-25T03:55:08;11.73;;;3.70;;
19291;SDS011;9779;51.756;7.450;2023-04-25T03:57:34;10.37;;;3.23;;
19291;SDS011;9779;51.756;7.450;2023-04-25T04:00:00;17.57;;;4.83;;
19291;SDS011;9779;51.756;7.450;2023-04-25T04:02:25;15.23;;;3.83;;
19291;SDS011;9779;51.756;7.450;2023-04-25T04:04:51;15.53;;;3.60;;
19291;SDS011;9779;51.756;7.450;2023-04-25T04:07:16;15.80;;;3.60;;
19291;SDS011;9779;51.756;7.450;2023-04-25T04:09:42;13.07;;;3.67;;
19291;SDS011;9779;51.756;7.450;2023-04-25T04:12:07;16.30;;;3.67;;
19291;SDS011;9779;51.756;7.450;2023-04-25T04:14:33;16.50;;;3.20;;
19291;SDS011;9779;51.756;7.450;2023-04-25T04:16:58;15.33;;;3.20;;
19291;SDS011;9779;51.756;7.450;2023-04-25T04:19:24;14.73;;;3.00;;
19291;SDS011;9779;51.756;7.450;2023-04-25T04:21:50;15.70;;;3.67;;
19291;SDS011;9779;51.756;7.450;2023-04-25T04:24:15;12.50;;;3.80;;
19291;SDS011;9779;51.756;7.450;2023-04-25T04:26:41;15.77;;;3.60;;
19291;SDS011;9779;51.756;7.450;2023-04-25T04:29:10;16.23;;;3.57;;
19291;SDS011;9779;51.756;7.450;2023-04-25T04:31:35;11.13;;;3.67;;
19291;SDS011;9779;51.756;7.450;2023-04-25T04:34:01;14.00;;;3.63;;
19291;SDS011;9779;51.756;7.450;2023-04-25T04:36:28;23.13;;;4.30;;
19291;SDS011;9779;51.756;7.450;2023-04-25T04:38:54;6.97;;;2.70;;
19291;SDS011;9779;51.756;7.450;2023-04-25T04:41:21;11.03;;;3.93;;
19291;SDS011;9779;51.756;7.450;2023-04-25T04:43:47;10.40;;;3.43;;
19291;SDS011;9779;51.756;7.450;2023-04-25T04:46:12;19.53;;;3.60;;
19291;SDS011;9779;51.756;7.450;2023-04-25T04:48:38;11.93;;;3.03;;
19291;SDS011;9779;51.756;7.450;2023-04-25T04:51:05;18.03;;;3.30;;
19291;SDS011;9779;51.756;7.450;2023-04-25T04:53:31;16.33;;;4.03;;
19291;SDS011;9779;51.756;7.450;2023-04-25T04:55:57;12.33;;;4.03;;
19291;SDS011;9779;51.756;7.450;2023-04-25T04:58:23;15.20;;;3.50;;
19291;SDS011;9779;51.756;7.450;2023-04-25T05:00:48;19.97;;;3.83;;
19291;SDS011;9779;51.756;7.450;2023-04-25T05:03:14;18.63;;;3.53;;
19291;SDS011;9779;51.756;7.450;2023-04-25T05:05:40;11.83;;;3.60;;
19291;SDS011;9779;51.756;7.450;2023-04-25T05:08:06;16.40;;;3.70;;
19291;SDS011;9779;51.756;7.450;2023-04-25T05:10:32;11.53;;;3.67;;
19291;SDS011;9779;51.756;7.450;2023-04-25T05:12:57;7.70;;;3.43;;
19291;SDS011;9779;51.756;7.450;2023-04-25T05:15:23;15.67;;;4.00;;
19291;SDS011;9779;51.756;7.450;2023-04-25T05:17:49;25.07;;;5.47;;
19291;SDS011;9779;51.756;7.450;2023-04-25T05:20:14;19.67;;;3.30;;
19291;SDS011;9779;51.756;7.450;2023-04-25T05:22:40;11.17;;;3.20;;
19291;SDS011;9779;51.756;7.450;2023-04-25T05:25:06;26.10;;;3.30;;
19291;SDS011;9779;51.756;7.450;2023-04-25T05:27:33;12.50;;;3.77;;
19291;SDS011;9779;51.756;7.450;2023-04-25T05:29:59;8.83;;;3.13;;
19291;SDS011;9779;51.756;7.450;2023-04-25T05:32:25;11.43;;;3.17;;
19291;SDS011;9779;51.756;7.450;2023-04-25T05:34:51;16.50;;;3.73;;
19291;SDS011;9779;51.756;7.450;2023-04-25T05:37:17;9.33;;;3.67;;
19291;SDS011;9779;51.756;7.450;2023-04-25T05:39:42;5.40;;;3.37;;
19291;SDS011;9779;51.756;7.450;2023-04-25T05:42:08;9.90;;;3.37;;
19291;SDS011;9779;51.756;7.450;2023-04-25T05:44:33;14.30;;;3.63;;
19291;SDS011;9779;51.756;7.450;2023-04-25T05:46:59;11.40;;;3.77;;
19291;SDS011;9779;51.756;7.450;2023-04-25T05:49:24;9.90;;;3.50;;
19291;SDS011;9779;51.756;7.450;2023-04-25T05:51:50;9.43;;;3.50;;
19291;SDS011;9779;51.756;7.450;2023-04-25T05:54:16;3.10;;;2.90;;
19291;SDS011;9779;51.756;7.450;2023-04-25T05:56:41;11.33;;;3.27;;
19291;SDS011;9779;51.756;7.450;2023-04-25T05:59:07;12.73;;;3.23;;
19291;SDS011;9779;51.756;7.450;2023-04-25T06:01:32;10.93;;;3.47;;
19291;SDS011;9779;51.756;7.450;2023-04-25T06:03:58;13.07;;;3.93;;
19291;SDS011;9779;51.756;7.450;2023-04-25T06:06:23;14.23;;;5.97;;
19291;SDS011;9779;51.756;7.450;2023-04-25T06:08:49;12.47;;;3.90;;
19291;SDS011;9779;51.756;7.450;2023-04-25T06:11:15;12.57;;;4.63;;
19291;SDS011;9779;51.756;7.450;2023-04-25T06:13:41;11.47;;;4.30;;
19291;SDS011;9779;51.756;7.450;2023-04-25T06:16:06;10.63;;;3.70;;
19291;SDS011;9779;51.756;7.450;2023-04-25T06:18:32;10.60;;;3.33;;
19291;SDS011;9779;51.756;7.450;2023-04-25T06:20:58;16.07;;;3.50;;
19291;SDS011;9779;51.756;7.450;2023-04-25T06:23:23;9.10;;;2.67;;
19291;SDS011;9779;51.756;7.450;2023-04-25T06:25:49;18.10;;;3.37;;
19291;SDS011;9779;51.756;7.450;2023-04-25T06:28:14;12.90;;;3.50;;
19291;SDS011;9779;51.756;7.450;2023-04-25T06:30:40;8.63;;;3.23;;
19291;SDS011;9779;51.756;7.450;2023-04-25T06:33:06;20.10;;;3.80;;
19291;SDS011;9779;51.756;7.450;2023-04-25T06:35:33;7.37;;;2.93;;
19291;SDS011;9779;51.756;7.450;2023-04-25T06:37:59;13.30;;;3.27;;
19291;SDS011;9779;51.756;7.450;2023-04-25T06:40:25;12.60;;;3.30;;
19291;SDS011;9779;51.756;7.450;2023-04-25T06:42:50;16.43;;;4.50;;
19291;SDS011;9779;51.756;7.450;2023-04-25T06:45:16;9.33;;;3.17;;
19291;SDS011;9779;51.756;7.450;2023-04-25T06:47:41;14.93;;;3.43;;
19291;SDS011;9779;51.756;7.450;2023-04-25T06:50:07;9.33;;;3.90;;
19291;SDS011;9779;51.756;7.450;2023-04-25T06:52:33;11.37;;;3.13;;
19291;SDS011;9779;51.756;7.450;2023-04-25T06:54:59;12.80;;;3.93;;
19291;SDS011;9779;51.756;7.450;2023-04-25T06:57:24;10.03;;;3.37;;
19291;SDS011;9779;51.756;7.450;2023-04-25T06:59:50;12.63;;;3.20;;
19291;SDS011;9779;51.756;7.450;2023-04-25T07:02:16;15.20;;;2.97;;
19291;SDS011;9779;51.756;7.450;2023-04-25T07:04:41;13.67;;;2.90;;
19291;SDS011;9779;51.756;7.450;2023-04-25T07:07:07;9.67;;;3.27;;
19291;SDS011;9779;51.756;7.450;2023-04-25T07:09:33;16.97;;;3.47;;
19291;SDS011;9779;51.756;7.450;2023-04-25T07:11:59;11.87;;;2.97;;
19291;SDS011;9779;51.756;7.450;2023-04-25T07:14:26;15.97;;;3.37;;
19291;SDS011;9779;51.756;7.450;2023-04-25T07:16:52;15.37;;;3.63;;
19291;SDS011;9779;51.756;7.450;2023-04-25T07:19:17;6.10;;;3.10;;
19291;SDS011;9779;51.756;7.450;2023-04-25T07:21:43;9.57;;;3.10;;
19291;SDS011;9779;51.756;7.450;2023-04-25T07:24:08;10.07;;;3.50;;
19291;SDS011;9779;51.756;7.450;2023-04-25T07:26:34;11.13;;;3.47;;
19291;SDS011;9779;51.756;7.450;2023-04-25T07:28:59;7.33;;;2.73;;
19291;SDS011;9779;51.756;7.450;2023-04-25T07:31:25;11.90;;;3.07;;
19291;SDS011;9779;51.756;7.450;2023-04-25T07:33:51;9.77;;;3.20;;
19291;SDS011;9779;51.756;7.450;2023-04-25T07:36:17;12.27;;;3.40;;
19291;SDS011;9779;51.756;7.450;2023-04-25T07:38:42;11.13;;;3.57;;
19291;SDS011;9779;51.756;7.450;2023-04-25T07:41:08;7.17;;;3.00;;
19291;SDS011;9779;51.756;7.450;2023-04-25T07:43:33;17.67;;;3.83;;
19291;SDS011;9779;51.756;7.450;2023-04-25T07:45:59;15.70;;;2.87;;
19291;SDS011;9779;51.756;7.450;2023-04-25T07:48:24;11.60;;;3.67;;
19291;SDS011;9779;51.756;7.450;2023-04-25T07:50:50;16.47;;;2.97;;
19291;SDS011;9779;51.756;7.450;2023-04-25T07:53:16;9.37;;;2.93;;
19291;SDS011;9779;51.756;7.450;2023-04-25T07:55:42;14.43;;;2.53;;
19291;SDS011;9779;51.756;7.450;2023-04-25T07:58:08;11.83;;;2.63;;
19291;SDS011;9779;51.756;7.450;2023-04-25T08:00:35;9.30;;;2.33;;
19291;SDS011;9779;51.756;7.450;2023-04-25T08:03:01;12.03;;;2.40;;
19291;SDS011;9779;51.756;7.450;2023-04-25T08:05:27;18.87;;;2.70;;
19291;SDS011;9779;51.756;7.450;2023-04-25T08:07:53;7.80;;;2.73;;
19291;SDS011;9779;51.756;7.450;2023-04-25T08:10:18;6.10;;;2.30;;
19291;SDS011;9779;51.756;7.450;2023-04-25T08:12:44;8.13;;;2.07;;
19291;SDS011;9779;51.756;7.450;2023-04-25T08:15:09;5.83;;;2.60;;
19291;SDS011;9779;51.756;7.450;2023-04-25T08:17:35;10.17;;;2.80;;
19291;SDS011;9779;51.756;7.450;2023-04-25T08:20:01;9.37;;;2.77;;
19291;SDS011;9779;51.756;7.450;2023-04-25T08:22:30;8.13;;;2.13;;
19291;SDS011;9779;51.756;7.450;2023-04-25T08:24:55;6.97;;;2.27;;
19291;SDS011;9779;51.756;7.450;2023-04-25T08:27:21;8.63;;;2.10;;
19291;SDS011;9779;51.756;7.450;2023-04-25T08:29:46;7.23;;;2.87;;
19291;SDS011;9779;51.756;7.450;2023-04-25T08:32:12;10.10;;;1.70;;
19291;SDS011;9779;51.756;7.450;2023-04-25T08:34:38;7.10;;;2.10;;
19291;SDS011;9779;51.756;7.450;2023-04-25T08:37:07;6.73;;;1.83;;
19291;SDS011;9779;51.756;7.450;2023-04-25T08:39:33;7.50;;;1.97;;
19291;SDS011;9779;51.756;7.450;2023-04-25T08:41:58;5.50;;;2.00;;
19291;SDS011;9779;51.756;7.450;2023-04-25T08:44:25;9.30;;;2.27;;
19291;SDS011;9779;51.756;7.450;2023-04-25T08:46:52;12.97;;;2.70;;
19291;SDS011;9779;51.756;7.450;2023-04-25T08:49:18;8.77;;;2.57;;
19291;SDS011;9779;51.756;7.450;2023-04-25T08:51:44;10.47;;;2.10;;
19291;SDS011;9779;51.756;7.450;2023-04-25T08:54:16;9.73;;;1.97;;
19291;SDS011;9779;51.756;7.450;2023-04-25T08:56:45;6.60;;;2.13;;
19291;SDS011;9779;51.756;7.450;2023-04-25T08:59:12;8.13;;;2.10;;
19291;SDS011;9779;51.756;7.450;2023-04-25T09:01:38;7.90;;;2.43;;
19291;SDS011;9779;51.756;7.450;2023-04-25T09:04:04;5.97;;;2.47;;
19291;SDS011;9779;51.756;7.450;2023-04-25T09:06:30;10.50;;;2.67;;
19291;SDS011;9779;51.756;7.450;2023-04-25T09:09:06;8.60;;;1.90;;
19291;SDS011;9779;51.756;7.450;2023-04-25T09:11:33;6.87;;;2.10;;
19291;SDS011;9779;51.756;7.450;2023-04-25T09:14:14;7.13;;;2.00;;
19291;SDS011;9779;51.756;7.450;2023-04-25T09:19:22;11.87;;;2.20;;
19291;SDS011;9779;51.756;7.450;2023-04-25T09:21:49;7.77;;;2.03;;
19291;SDS011;9779;51.756;7.450;2023-04-25T09:24:16;5.70;;;1.60;;
19291;SDS011;9779;51.756;7.450;2023-04-25T09:26:54;12.63;;;2.53;;
19291;SDS011;9779;51.756;7.450;2023-04-25T09:29:20;2.10;;;1.77;;
19291;SDS011;9779;51.756;7.450;2023-04-25T09:32:10;4.97;;;1.67;;
19291;SDS011;9779;51.756;7.450;2023-04-25T09:34:46;9.47;;;2.67;;
19291;SDS011;9779;51.756;7.450;2023-04-25T09:37:21;6.13;;;1.70;;
19291;SDS011;9779;51.756;7.450;2023-04-25T09:39:48;11.50;;;1.77;;
19291;SDS011;9779;51.756;7.450;2023-04-25T09:42:15;5.93;;;1.43;;
19291;SDS011;9779;51.756;7.450;2023-04-25T09:44:42;5.53;;;1.93;;
19291;SDS011;9779;51.756;7.450;2023-04-25T09:47:09;11.10;;;2.03;;
19291;SDS011;9779;51.756;7.450;2023-04-25T09:49:38;2.53;;;1.67;;
19291;SDS011;9779;51.756;7.450;2023-04-25T09:52:05;4.53;;;1.40;;
19291;SDS011;9779;51.756;7.450;2023-04-25T09:54:31;6.80;;;2.20;;
19291;SDS011;9779;51.756;7.450;2023-04-25T09:56:57;5.33;;;1.57;;
19291;SDS011;9779;51.756;7.450;2023-04-25T09:59:27;4.57;;;1.70;;
19291;SDS011;9779;51.756;7.450;2023-04-25T10:01:56;4.90;;;1.70;;
19291;SDS011;9779;51.756;7.450;2023-04-25T10:04:23;6.43;;;1.97;;
19291;SDS011;9779;51.756;7.450;2023-04-25T10:06:53;6.50;;;1.60;;
19291;SDS011;9779;51.756;7.450;2023-04-25T10:09:20;3.23;;;1.60;;
19291;SDS011;9779;51.756;7.450;2023-04-25T10:11:50;7.20;;;1.60;;
19291;SDS011;9779;51.756;7.450;2023-04-25T10:14:16;4.97;;;1.57;;
19291;SDS011;9779;51.756;7.450;2023-04-25T10:16:42;6.40;;;2.20;;
19291;SDS011;9779;51.756;7.450;2023-04-25T10:19:08;8.20;;;2.23;;
19291;SDS011;9779;51.756;7.450;2023-04-25T10:21:34;7.17;;;2.10;;
19291;SDS011;9779;51.756;7.450;2023-04-25T10:24:09;6.73;;;2.00;;
19291;SDS011;9779;51.756;7.450;2023-04-25T10:26:35;15.17;;;2.10;;
19291;SDS011;9779;51.756;7.450;2023-04-25T10:29:01;6.73;;;1.80;;
19291;SDS011;9779;51.756;7.450;2023-04-25T10:31:31;5.73;;;2.10;;
19291;SDS011;9779;51.756;7.450;2023-04-25T10:33:57;9.77;;;2.37;;
19291;SDS011;9779;51.756;7.450;2023-04-25T10:36:24;7.47;;;1.80;;
19291;SDS011;9779;51.756;7.450;2023-04-25T10:38:52;5.53;;;2.13;;
19291;SDS011;9779;51.756;7.450;2023-04-25T10:41:21;6.37;;;1.57;;
19291;SDS011;9779;51.756;7.450;2023-04-25T10:43:48;5.73;;;1.83;;
19291;SDS011;9779;51.756;7.450;2023-04-25T10:46:22;4.70;;;1.43;;
19291;SDS011;9779;51.756;7.450;2023-04-25T10:48:56;5.23;;;1.60;;
19291;SDS011;9779;51.756;7.450;2023-04-25T10:51:28;8.53;;;1.50;;
19291;SDS011;9779;51.756;7.450;2023-04-25T10:56:32;4.93;;;1.83;;
19291;SDS011;9779;51.756;7.450;2023-04-25T11:01:35;6.70;;;1.80;;
19291;SDS011;9779;51.756;7.450;2023-04-25T11:04:06;4.37;;;1.83;;
19291;SDS011;9779;51.756;7.450;2023-04-25T11:09:30;6.73;;;2.10;;
19291;SDS011;9779;51.756;7.450;2023-04-25T11:11:58;6.07;;;2.23;;
19291;SDS011;9779;51.756;7.450;2023-04-25T11:14:25;6.03;;;2.00;;
19291;SDS011;9779;51.756;7.450;2023-04-25T11:16:58;2.40;;;1.60;;
19291;SDS011;9779;51.756;7.450;2023-04-25T11:19:26;2.33;;;1.60;;
19291;SDS011;9779;51.756;7.450;2023-04-25T11:21:56;10.57;;;1.70;;
19291;SDS011;9779;51.756;7.450;2023-04-25T11:24:29;2.63;;;1.33;;
19291;SDS011;9779;51.756;7.450;2023-04-25T11:26:57;5.33;;;1.67;;
19291;SDS011;9779;51.756;7.450;2023-04-25T11:29:27;3.27;;;1.40;;
19291;SDS011;9779;51.756;7.450;2023-04-25T11:31:54;3.27;;;1.10;;
19291;SDS011;9779;51.756;7.450;2023-04-25T11:34:23;1.87;;;1.07;;
19291;SDS011;9779;51.756;7.450;2023-04-25T11:36:50;5.37;;;1.10;;
19291;SDS011;9779;51.756;7.450;2023-04-25T11:39:17;3.40;;;1.13;;
19291;SDS011;9779;51.756;7.450;2023-04-25T11:41:43;2.70;;;1.30;;
19291;SDS011;9779;51.756;7.450;2023-04-25T11:44:08;7.23;;;1.13;;
19291;SDS011;9779;51.756;7.450;2023-04-25T11:46:34;3.07;;;1.07;;
19291;SDS011;9779;51.756;7.450;2023-04-25T11:49:00;1.33;;;0.83;;
19291;SDS011;9779;51.756;7.450;2023-04-25T11:51:26;2.70;;;1.50;;
19291;SDS011;9779;51.756;7.450;2023-04-25T11:53:52;1.80;;;0.97;;
19291;SDS011;9779;51.756;7.450;2023-04-25T11:56:17;2.50;;;1.17;;
19291;SDS011;9779;51.756;7.450;2023-04-25T11:58:59;1.30;;;0.63;;
19291;SDS011;9779;51.756;7.450;2023-04-25T12:01:29;6.43;;;1.30;;
19291;SDS011;9779;51.756;7.450;2023-04-25T12:03:55;2.60;;;1.30;;
19291;SDS011;9779;51.756;7.450;2023-04-25T12:06:25;2.93;;;1.27;;
19291;SDS011;9779;51.756;7.450;2023-04-25T12:11:29;2.90;;;1.30;;
19291;SDS011;9779;51.756;7.450;2023-04-25T12:13:56;2.33;;;1.57;;
19291;SDS011;9779;51.756;7.450;2023-04-25T12:16:27;4.60;;;1.43;;
19291;SDS011;9779;51.756;7.450;2023-04-25T12:18:52;1.97;;;1.10;;
19291;SDS011;9779;51.756;7.450;2023-04-25T12:21:20;6.67;;;1.30;;
19291;SDS011;9779;51.756;7.450;2023-04-25T12:23:45;3.37;;;1.27;;
19291;SDS011;9779;51.756;7.450;2023-04-25T12:26:11;6.83;;;1.70;;
19291;SDS011;9779;51.756;7.450;2023-04-25T12:28:36;5.63;;;1.57;;
19291;SDS011;9779;51.756;7.450;2023-04-25T12:31:03;3.03;;;1.27;;
19291;SDS011;9779;51.756;7.450;2023-04-25T12:33:30;3.73;;;1.10;;
19291;SDS011;9779;51.756;7.450;2023-04-25T12:35:57;3.67;;;1.30;;
19291;SDS011;9779;51.756;7.450;2023-04-25T12:38:24;4.20;;;1.00;;
19291;SDS011;9779;51.756;7.450;2023-04-25T12:40:50;2.60;;;1.20;;
19291;SDS011;9779;51.756;7.450;2023-04-25T12:43:16;3.20;;;1.00;;
19291;SDS011;9779;51.756;7.450;2023-04-25T12:45:42;2.17;;;1.00;;
19291;SDS011;9779;51.756;7.450;2023-04-25T12:48:09;1.77;;;1.27;;
19291;SDS011;9779;51.756;7.450;2023-04-25T12:50:34;1.60;;;0.97;;
19291;SDS011;9779;51.756;7.450;2023-04-25T12:53:00;3.07;;;1.63;;
19291;SDS011;9779;51.756;7.450;2023-04-25T12:55:25;3.33;;;1.43;;
19291;SDS011;9779;51.756;7.450;2023-04-25T12:57:51;3.53;;;1.00;;
19291;SDS011;9779;51.756;7.450;2023-04-25T13:00:17;1.93;;;0.70;;
19291;SDS011;9779;51.756;7.450;2023-04-25T13:02:44;1.77;;;1.10;;
19291;SDS011;9779;51.756;7.450;2023-04-25T13:05:11;2.97;;;1.10;;
19291;SDS011;9779;51.756;7.450;2023-04-25T13:07:37;1.87;;;0.97;;
19291;SDS011;9779;51.756;7.450;2023-04-25T13:10:03;4.50;;;1.00;;
19291;SDS011;9779;51.756;7.450;2023-04-25T13:12:30;2.53;;;1.27;;
19291;SDS011;9779;51.756;7.450;2023-04-25T13:14:56;3.77;;;1.30;;
19291;SDS011;9779;51.756;7.450;2023-04-25T13:17:22;1.60;;;1.00;;
19291;SDS011;9779;51.756;7.450;2023-04-25T13:19:47;3.70;;;1.20;;
19291;SDS011;9779;51.756;7.450;2023-04-25T13:22:13;3.60;;;1.40;;
19291;SDS011;9779;51.756;7.450;2023-04-25T13:24:40;3.60;;;1.87;;
19291;SDS011;9779;51.756;7.450;2023-04-25T13:27:05;1.97;;;0.90;;
19291;SDS011;9779;51.756;7.450;2023-04-25T13:29:31;4.07;;;1.30;;
19291;SDS011;9779;51.756;7.450;2023-04-25T13:31:59;2.87;;;1.30;;
19291;SDS011;9779;51.756;7.450;2023-04-25T13:34:25;1.60;;;0.80;;
19291;SDS011;9779;51.756;7.450;2023-04-25T13:36:51;1.23;;;0.80;;
19291;SDS011;9779;51.756;7.450;2023-04-25T13:39:16;3.43;;;0.87;;
19291;SDS011;9779;51.756;7.450;2023-04-25T13:41:42;1.47;;;0.70;;
19291;SDS011;9779;51.756;7.450;2023-04-25T13:44:07;1.87;;;0.77;;
19291;SDS011;9779;51.756;7.450;2023-04-25T13:46:33;1.20;;;0.80;;
19291;SDS011;9779;51.756;7.450;2023-04-25T13:48:58;2.77;;;1.20;;
19291;SDS011;9779;51.756;7.450;2023-04-25T13:51:24;2.37;;;0.77;;
19291;SDS011;9779;51.756;7.450;2023-04-25T13:53:51;1.07;;;0.70;;
19291;SDS011;9779;51.756;7.450;2023-04-25T13:56:17;1.23;;;0.70;;
19291;SDS011;9779;51.756;7.450;2023-04-25T13:58:44;2.40;;;1.07;;
19291;SDS011;9779;51.756;7.450;2023-04-25T14:01:10;1.53;;;1.00;;
19291;SDS011;9779;51.756;7.450;2023-04-25T14:03:35;2.40;;;1.77;;
19291;SDS011;9779;51.756;7.450;2023-04-25T14:06:01;1.80;;;0.80;;
19291;SDS011;9779;51.756;7.450;2023-04-25T14:08:27;2.10;;;1.30;;
19291;SDS011;9779;51.756;7.450;2023-04-25T14:10:53;6.00;;;5.50;;
19291;SDS011;9779;51.756;7.450;2023-04-25T14:13:19;5.03;;;1.70;;
19291;SDS011;9779;51.756;7.450;2023-04-25T14:15:45;4.83;;;1.60;;
19291;SDS011;9779;51.756;7.450;2023-04-25T14:18:11;2.77;;;1.10;;
19291;SDS011;9779;51.756;7.450;2023-04-25T14:20:36;4.40;;;1.47;;
19291;SDS011;9779;51.756;7.450;2023-04-25T14:23:02;2.70;;;1.73;;
19291;SDS011;9779;51.756;7.450;2023-04-25T14:25:28;3.43;;;1.60;;
19291;SDS011;9779;51.756;7.450;2023-04-25T14:27:54;3.63;;;1.43;;
19291;SDS011;9779;51.756;7.450;2023-04-25T14:30:20;6.33;;;1.57;;
19291;SDS011;9779;51.756;7.450;2023-04-25T14:32:47;4.47;;;1.30;;
19291;SDS011;9779;51.756;7.450;2023-04-25T14:35:14;6.10;;;1.63;;
19291;SDS011;9779;51.756;7.450;2023-04-25T14:37:40;3.30;;;1.50;;
19291;SDS011;9779;51.756;7.450;2023-04-25T14:40:06;1.83;;;1.13;;
19291;SDS011;9779;51.756;7.450;2023-04-25T14:42:35;4.23;;;1.20;;
19291;SDS011;9779;51.756;7.450;2023-04-25T14:45:02;2.00;;;1.27;;
19291;SDS011;9779;51.756;7.450;2023-04-25T14:47:28;9.73;;;1.80;;
19291;SDS011;9779;51.756;7.450;2023-04-25T14:49:54;2.50;;;1.33;;
19291;SDS011;9779;51.756;7.450;2023-04-25T14:52:20;3.07;;;1.63;;
19291;SDS011;9779;51.756;7.450;2023-04-25T14:54:46;7.57;;;1.37;;
19291;SDS011;9779;51.756;7.450;2023-04-25T14:57:12;1.57;;;0.97;;
19291;SDS011;9779;51.756;7.450;2023-04-25T14:59:38;1.80;;;1.17;;
19291;SDS011;9779;51.756;7.450;2023-04-25T15:02:03;2.00;;;1.30;;
19291;SDS011;9779;51.756;7.450;2023-04-25T15:04:29;1.10;;;1.00;;
19291;SDS011;9779;51.756;7.450;2023-04-25T15:06:55;4.07;;;1.73;;